createdAt,value
2023-05-03T00:01:45.152Z,39.06
2023-05-03T00:04:15.800Z,39.02
2023-05-03T00:06:44.424Z,39.06
2023-05-03T00:09:12.224Z,39.11
2023-05-03T00:11:41.876Z,39.13
2023-05-03T00:14:09.309Z,38.95
2023-05-03T00:16:36.837Z,39.07
2023-05-03T00:19:04.576Z,39.12
2023-05-03T00:21:31.991Z,39.12
2023-05-03T00:23:59.483Z,39.12
2023-05-03T00:26:27.981Z,39.11
2023-05-03T00:28:55.445Z,39.11
2023-05-03T00:31:22.877Z,39.10
2023-05-03T00:33:50.661Z,39.10
2023-05-03T00:36:18.068Z,39.08
2023-05-03T00:38:45.528Z,39.09
2023-05-03T00:41:13.425Z,39.09
2023-05-03T00:43:40.836Z,39.08
2023-05-03T00:46:16.900Z,39.08
2023-05-03T00:48:48.564Z,39.09
2023-05-03T00:51:16.474Z,39.09
2023-05-03T00:53:44.075Z,39.07
2023-05-03T00:56:12.114Z,39.04
2023-05-03T00:58:40.730Z,39.00
2023-05-03T01:01:08.912Z,39.01
2023-05-03T01:03:37.790Z,39.06
2023-05-03T01:06:13.990Z,39.01
2023-05-03T01:08:47.107Z,39.02
2023-05-03T01:11:23.895Z,39.02
2023-05-03T01:14:01.174Z,39.00
2023-05-03T01:16:33.010Z,38.99
2023-05-03T01:19:02.768Z,38.97
2023-05-03T01:21:31.075Z,38.93
2023-05-03T01:24:08.383Z,38.93
2023-05-03T01:26:36.233Z,38.96
2023-05-03T01:29:04.026Z,38.98
2023-05-03T01:31:43.662Z,38.97
2023-05-03T01:34:17.297Z,38.99
2023-05-03T01:36:44.972Z,39.03
2023-05-03T01:39:21.210Z,39.02
2023-05-03T01:41:50.545Z,39.07
2023-05-03T01:44:19.815Z,39.13
2023-05-03T01:46:47.645Z,39.17
2023-05-03T01:49:15.072Z,39.22
2023-05-03T01:51:42.993Z,39.28
2023-05-03T01:54:11.930Z,39.23
2023-05-03T01:56:39.361Z,39.17
2023-05-03T01:59:07.111Z,39.23
2023-05-03T02:01:34.736Z,39.15
2023-05-03T02:04:02.545Z,39.13
2023-05-03T02:06:30.083Z,39.16
2023-05-03T02:08:59.965Z,39.07
2023-05-03T02:11:27.718Z,39.09
2023-05-03T02:13:55.141Z,39.09
2023-05-03T02:16:22.890Z,39.11
2023-05-03T02:18:51.932Z,39.13
2023-05-03T02:21:19.368Z,39.12
2023-05-03T02:23:47.102Z,39.14
2023-05-03T02:26:14.966Z,39.21
2023-05-03T02:28:42.433Z,39.36
2023-05-03T02:31:10.110Z,39.38
2023-05-03T02:33:37.971Z,39.40
2023-05-03T02:36:05.826Z,39.38
2023-05-03T02:38:33.537Z,39.30
2023-05-03T02:41:01.083Z,39.31
2023-05-03T02:43:28.622Z,39.33
2023-05-03T02:45:57.983Z,39.34
2023-05-03T02:48:25.820Z,39.34
2023-05-03T02:50:55.016Z,39.40
2023-05-03T02:53:23.061Z,39.44
2023-05-03T02:55:51.302Z,39.45
2023-05-03T02:58:18.782Z,39.46
2023-05-03T03:00:46.590Z,39.52
2023-05-03T03:03:16.358Z,39.58
2023-05-03T03:05:43.957Z,39.60
2023-05-03T03:08:11.659Z,39.63
2023-05-03T03:10:39.469Z,39.69
2023-05-03T03:13:06.874Z,39.72
2023-05-03T03:15:34.984Z,39.74
2023-05-03T03:18:02.475Z,39.76
2023-05-03T03:20:30.537Z,39.79
2023-05-03T03:22:58.292Z,39.82
2023-05-03T03:25:27.029Z,39.83
2023-05-03T03:27:56.264Z,39.87
2023-05-03T03:30:23.976Z,39.87
2023-05-03T03:32:52.782Z,39.93
2023-05-03T03:35:22.708Z,39.96
2023-05-03T03:37:51.702Z,39.97
2023-05-03T03:40:19.533Z,40.02
2023-05-03T03:42:47.620Z,40.02
2023-05-03T03:45:15.302Z,40.05
2023-05-03T03:47:42.768Z,40.09
2023-05-03T03:50:10.671Z,40.07
2023-05-03T03:52:39.553Z,40.12
2023-05-03T03:55:07.693Z,40.17
2023-05-03T03:57:35.131Z,40.13
2023-05-03T04:00:10.513Z,40.17
2023-05-03T04:02:39.915Z,40.18
2023-05-03T04:05:09.470Z,40.27
2023-05-03T04:07:37.003Z,40.26
2023-05-03T04:10:05.340Z,40.29
2023-05-03T04:12:34.185Z,40.35
2023-05-03T04:15:02.420Z,40.36
2023-05-03T04:17:29.926Z,40.39
2023-05-03T04:19:57.705Z,40.39
2023-05-03T04:22:25.214Z,40.38
2023-05-03T04:24:54.733Z,40.40
2023-05-03T04:27:22.392Z,40.36
2023-05-03T04:29:50.791Z,40.35
2023-05-03T04:32:23.262Z,40.41
2023-05-03T04:34:53.895Z,40.40
2023-05-03T04:37:23.224Z,40.45
2023-05-03T04:39:51.142Z,40.42
2023-05-03T04:42:19.435Z,40.36
2023-05-03T04:44:47.601Z,40.38
2023-05-03T04:47:15.365Z,40.25
2023-05-03T04:49:42.817Z,40.15
2023-05-03T04:52:10.672Z,40.09
2023-05-03T04:54:38.492Z,40.06
2023-05-03T04:57:07.157Z,40.02
2023-05-03T04:59:34.611Z,40.02
2023-05-03T05:02:02.547Z,40.02
2023-05-03T05:04:30.473Z,40.01
2023-05-03T05:06:59.371Z,40.02
2023-05-03T05:09:28.515Z,40.01
2023-05-03T05:11:57.302Z,39.79
2023-05-03T05:14:26.714Z,39.92
2023-05-03T05:16:54.725Z,39.98
2023-05-03T05:19:22.208Z,40.00
2023-05-03T05:21:49.678Z,40.13
2023-05-03T05:24:17.594Z,40.20
2023-05-03T05:26:45.266Z,40.29
2023-05-03T05:29:13.438Z,40.46
2023-05-03T05:31:41.410Z,40.63
2023-05-03T05:34:08.926Z,40.79
2023-05-03T05:36:37.018Z,40.94
2023-05-03T05:39:05.414Z,41.00
2023-05-03T05:41:33.071Z,41.02
2023-05-03T05:44:00.777Z,41.07
2023-05-03T05:46:29.128Z,41.12
2023-05-03T05:48:56.592Z,41.15
2023-05-03T05:51:24.093Z,41.13
2023-05-03T05:53:52.036Z,41.16
2023-05-03T05:56:20.092Z,41.15
2023-05-03T06:01:57.695Z,41.10
2023-05-03T06:04:25.809Z,40.95
2023-05-03T06:06:53.741Z,41.08
2023-05-03T06:09:24.665Z,41.11
2023-05-03T06:11:53.731Z,41.11
2023-05-03T06:14:21.808Z,41.05
2023-05-03T06:16:49.762Z,41.05
2023-05-03T06:19:17.476Z,41.01
2023-05-03T06:21:44.880Z,41.01
2023-05-03T06:27:28.936Z,40.95
2023-05-03T06:29:57.758Z,40.80
2023-05-03T06:32:25.186Z,40.93
2023-05-03T06:34:53.605Z,40.99
2023-05-03T06:37:21.415Z,40.99
2023-05-03T06:39:50.515Z,40.98
2023-05-03T06:42:32.977Z,40.97
2023-05-03T06:51:18.750Z,40.97
2023-05-03T06:53:46.481Z,40.98
2023-05-03T06:56:13.853Z,41.00
2023-05-03T06:58:41.331Z,41.02
2023-05-03T07:01:09.124Z,41.07
2023-05-03T07:06:44.267Z,41.15
2023-05-03T07:09:43.213Z,41.21
2023-05-03T07:12:33.750Z,41.25
2023-05-03T07:21:36.808Z,41.17
2023-05-03T07:24:04.737Z,41.14
2023-05-03T07:26:32.168Z,41.11
2023-05-03T07:28:59.544Z,41.09
2023-05-03T07:31:27.210Z,41.06
2023-05-03T07:33:54.857Z,41.02
2023-05-03T07:36:22.425Z,40.98
2023-05-03T07:38:50.035Z,40.97
2023-05-03T07:41:17.535Z,40.91
2023-05-03T07:43:47.034Z,40.88
2023-05-03T07:49:17.814Z,40.80
2023-05-03T07:51:45.463Z,40.80
2023-05-03T07:54:25.902Z,40.80
2023-05-03T07:57:00.654Z,40.83
2023-05-03T08:02:28.070Z,40.93
2023-05-03T08:04:56.520Z,40.99
2023-05-03T08:07:24.098Z,40.99
2023-05-03T08:09:53.677Z,41.00
2023-05-03T08:12:21.410Z,40.97
2023-05-03T08:14:48.849Z,40.93
2023-05-03T08:17:16.291Z,40.93
2023-05-03T08:19:44.033Z,40.94
2023-05-03T08:22:12.485Z,40.96
2023-05-03T08:24:39.910Z,40.96
2023-05-03T08:27:08.248Z,40.96
2023-05-03T08:29:37.638Z,40.94
2023-05-03T08:32:05.197Z,40.96
2023-05-03T08:34:33.022Z,40.94
2023-05-03T08:37:00.453Z,40.95
2023-05-03T08:39:28.040Z,40.95
2023-05-03T08:41:55.896Z,40.93
2023-05-03T08:44:24.216Z,40.90
2023-05-03T08:46:52.585Z,40.93
2023-05-03T08:49:21.606Z,40.88
2023-05-03T08:51:49.852Z,40.89
2023-05-03T08:54:18.330Z,40.87
2023-05-03T08:56:47.375Z,40.84
2023-05-03T08:59:17.120Z,40.84
2023-05-03T09:01:44.694Z,40.83
2023-05-03T09:04:12.903Z,40.82
2023-05-03T09:06:40.543Z,40.82
2023-05-03T09:09:08.664Z,41.47
2023-05-03T09:11:37.954Z,41.61
2023-05-03T09:14:09.038Z,42.38
2023-05-03T09:16:36.822Z,42.14
2023-05-03T09:19:06.281Z,42.06
2023-05-03T09:21:33.742Z,42.08
2023-05-03T09:24:04.036Z,42.07
2023-05-03T09:26:33.108Z,42.03
2023-05-03T09:29:02.990Z,41.93
2023-05-03T09:31:31.350Z,41.94
2023-05-03T09:33:58.797Z,41.83
2023-05-03T09:36:27.661Z,42.02
2023-05-03T09:38:56.046Z,42.03
2023-05-03T09:41:30.404Z,41.96
2023-05-03T09:44:02.845Z,41.82
2023-05-03T09:46:30.417Z,41.90
2023-05-03T09:48:58.381Z,41.91
2023-05-03T09:51:26.267Z,41.89
2023-05-03T09:53:53.774Z,41.89
2023-05-03T09:56:26.422Z,41.89
2023-05-03T09:58:54.387Z,41.92
2023-05-03T10:01:25.333Z,41.99
2023-05-03T10:03:54.418Z,41.97
2023-05-03T10:06:32.692Z,41.87
2023-05-03T10:09:23.277Z,41.80
2023-05-03T10:11:52.684Z,41.81
2023-05-03T10:14:21.402Z,41.78
2023-05-03T10:16:50.052Z,41.71
2023-05-03T10:19:27.990Z,41.70
2023-05-03T10:22:08.594Z,41.58
2023-05-03T10:24:56.709Z,41.45
2023-05-03T10:27:24.171Z,41.38
2023-05-03T10:29:52.203Z,41.32
2023-05-03T10:32:43.333Z,41.29
2023-05-03T10:35:14.398Z,41.30
2023-05-03T10:37:42.496Z,41.26
2023-05-03T10:40:14.172Z,41.17
2023-05-03T10:42:54.794Z,41.14
2023-05-03T10:45:28.263Z,41.10
2023-05-03T10:48:11.130Z,41.06
2023-05-03T10:50:39.100Z,41.02
2023-05-03T10:53:06.804Z,41.00
2023-05-03T10:55:34.224Z,40.98
2023-05-03T10:58:01.778Z,40.97
2023-05-03T11:00:41.566Z,40.93
2023-05-03T11:03:23.655Z,40.91
2023-05-03T11:05:52.302Z,40.88
2023-05-03T11:08:21.146Z,40.87
2023-05-03T11:10:49.803Z,40.88
2023-05-03T11:13:17.478Z,40.86
2023-05-03T11:15:46.912Z,40.84
2023-05-03T11:18:15.926Z,40.80
2023-05-03T11:20:43.607Z,40.79
2023-05-03T11:23:11.459Z,40.77
2023-05-03T11:25:39.318Z,40.77
2023-05-03T11:28:07.104Z,40.75
2023-05-03T11:30:35.090Z,40.73
2023-05-03T11:33:02.755Z,40.72
2023-05-03T11:35:30.699Z,40.72
2023-05-03T11:37:58.197Z,40.71
2023-05-03T11:40:26.102Z,40.70
2023-05-03T11:42:58.665Z,40.69
2023-05-03T11:45:26.795Z,40.67
2023-05-03T11:47:54.585Z,40.65
2023-05-03T11:50:55.615Z,40.64
2023-05-03T11:53:24.453Z,40.60
2023-05-03T11:55:55.102Z,40.60
2023-05-03T11:58:27.145Z,40.61
2023-05-03T12:00:55.997Z,40.61
2023-05-03T12:03:31.951Z,40.60
2023-05-03T12:06:00.521Z,40.58
2023-05-03T12:08:31.416Z,40.55
2023-05-03T12:11:03.899Z,40.53
2023-05-03T12:13:38.625Z,40.53
2023-05-03T12:16:12.895Z,40.53
2023-05-03T12:18:55.768Z,40.51
2023-05-03T12:23:57.419Z,40.50
2023-05-03T12:26:26.361Z,40.50
2023-05-03T12:28:56.718Z,40.45
2023-05-03T12:31:25.076Z,40.46
2023-05-03T12:34:22.905Z,40.42
2023-05-03T12:36:44.358Z,40.41
2023-05-03T12:39:15.950Z,40.39
2023-05-03T12:44:16.790Z,40.39
2023-05-03T12:46:45.845Z,40.38
2023-05-03T12:49:15.229Z,40.37
2023-05-03T12:51:43.425Z,40.35
2023-05-03T12:54:12.241Z,40.31
2023-05-03T12:56:41.078Z,40.31
2023-05-03T13:04:40.222Z,40.29
2023-05-03T13:07:00.578Z,40.28
2023-05-03T13:09:46.138Z,40.23
2023-05-03T13:12:20.365Z,40.23
2023-05-03T13:14:49.008Z,40.22
2023-05-03T13:17:17.121Z,40.23
2023-05-03T13:19:50.844Z,40.23
2023-05-03T13:22:18.644Z,40.22
2023-05-03T13:24:46.948Z,40.19
2023-05-03T13:27:14.706Z,40.20
2023-05-03T13:29:42.553Z,40.19
2023-05-03T13:32:10.568Z,40.19
2023-05-03T13:34:38.063Z,40.17
2023-05-03T13:37:05.996Z,40.17
2023-05-03T13:39:33.458Z,40.13
2023-05-03T13:42:01.032Z,40.13
2023-05-03T13:44:28.937Z,40.11
2023-05-03T13:46:57.069Z,40.12
2023-05-03T13:49:25.526Z,40.12
2023-05-03T13:51:53.219Z,40.10
2023-05-03T13:54:20.714Z,40.10
2023-05-03T13:56:48.370Z,40.08
2023-05-03T13:59:16.082Z,40.09
2023-05-03T14:01:43.707Z,40.08
2023-05-03T14:04:11.688Z,40.06
2023-05-03T14:06:41.297Z,40.05
2023-05-03T14:09:09.478Z,40.04
2023-05-03T14:11:38.121Z,40.01
2023-05-03T14:14:05.713Z,40.04
2023-05-03T14:19:03.972Z,40.04
2023-05-03T14:21:31.857Z,40.03
2023-05-03T14:23:59.346Z,40.02
2023-05-03T14:26:29.351Z,39.99
2023-05-03T14:28:57.102Z,40.00
2023-05-03T14:31:24.676Z,39.97
2023-05-03T14:33:52.563Z,39.96
2023-05-03T14:36:19.966Z,39.96
2023-05-03T14:38:47.482Z,39.96
2023-05-03T14:41:15.173Z,39.93
2023-05-03T14:43:42.609Z,39.96
2023-05-03T14:46:10.356Z,39.95
2023-05-03T14:48:38.387Z,39.92
2023-05-03T14:51:05.955Z,39.96
2023-05-03T14:53:33.362Z,39.93
2023-05-03T14:56:01.844Z,39.91
2023-05-03T14:58:29.351Z,39.92
2023-05-03T15:00:56.861Z,39.91
2023-05-03T15:03:24.685Z,39.90
2023-05-03T15:05:52.152Z,39.89
2023-05-03T15:08:19.734Z,39.90
2023-05-03T15:10:47.974Z,39.89
2023-05-03T15:13:16.344Z,39.87
2023-05-03T15:15:44.349Z,39.91
2023-05-03T15:18:14.412Z,39.95
2023-05-03T15:20:41.955Z,39.99
2023-05-03T15:23:09.408Z,39.96
2023-05-03T15:25:37.098Z,39.91
2023-05-03T15:28:04.898Z,39.93
2023-05-03T15:30:32.811Z,39.97
2023-05-03T15:33:01.957Z,40.01
2023-05-03T15:35:29.546Z,40.07
2023-05-03T15:37:56.996Z,40.12
2023-05-03T15:40:27.013Z,40.15
2023-05-03T15:42:54.724Z,40.23
2023-05-03T15:45:24.396Z,40.26
2023-05-03T15:47:52.832Z,40.26
2023-05-03T15:50:20.559Z,40.34
2023-05-03T15:52:48.622Z,40.91
2023-05-03T15:55:17.391Z,40.96
2023-05-03T15:57:45.564Z,41.12
2023-05-03T16:00:16.021Z,41.14
2023-05-03T16:02:43.748Z,41.05
2023-05-03T16:05:12.982Z,40.88
2023-05-03T16:07:40.436Z,40.73
2023-05-03T16:10:09.456Z,40.48
2023-05-03T16:12:37.198Z,40.29
2023-05-03T16:15:05.335Z,40.09
2023-05-03T16:17:35.455Z,39.89
2023-05-03T16:20:05.693Z,39.72
2023-05-03T16:22:33.331Z,39.55
2023-05-03T16:25:01.167Z,39.38
2023-05-03T16:27:28.749Z,39.21
2023-05-03T16:29:56.182Z,39.06
2023-05-03T16:32:24.275Z,38.88
2023-05-03T16:34:52.101Z,38.73
2023-05-03T16:37:19.808Z,38.60
2023-05-03T16:39:47.591Z,38.47
2023-05-03T16:42:15.040Z,38.34
2023-05-03T16:44:42.481Z,38.23
2023-05-03T16:47:10.896Z,38.06
2023-05-03T16:49:38.286Z,37.97
2023-05-03T16:52:05.892Z,37.87
2023-05-03T16:54:33.578Z,37.76
2023-05-03T16:57:02.187Z,37.65
2023-05-03T16:59:29.608Z,37.57
2023-05-03T17:01:59.364Z,37.49
2023-05-03T17:04:27.530Z,37.36
2023-05-03T17:06:56.181Z,37.23
2023-05-03T17:09:23.805Z,37.26
2023-05-03T17:11:51.243Z,37.30
2023-05-03T17:14:18.679Z,37.36
2023-05-03T17:16:48.814Z,37.40
2023-05-03T17:19:16.294Z,37.39
2023-05-03T17:21:43.778Z,37.35
2023-05-03T17:24:11.841Z,37.37
2023-05-03T17:26:39.661Z,37.39
2023-05-03T17:29:07.823Z,37.47
2023-05-03T17:31:35.556Z,37.55
2023-05-03T17:34:03.098Z,37.58
2023-05-03T17:36:30.825Z,37.65
2023-05-03T17:38:58.681Z,37.67
2023-05-03T17:41:26.163Z,37.70
2023-05-03T17:43:53.793Z,37.78
2023-05-03T17:46:21.690Z,37.84
2023-05-03T17:48:49.202Z,37.91
2023-05-03T17:51:16.888Z,37.96
2023-05-03T17:53:44.676Z,38.00
2023-05-03T17:56:18.431Z,38.11
2023-05-03T17:58:46.836Z,38.19
2023-05-03T18:01:16.164Z,38.26
2023-05-03T18:03:44.297Z,38.29
2023-05-03T18:06:13.187Z,38.31
2023-05-03T18:08:41.823Z,38.40
2023-05-03T18:11:11.001Z,38.48
2023-05-03T18:13:40.460Z,38.53
2023-05-03T18:16:08.645Z,38.58
2023-05-03T18:18:36.591Z,38.65
2023-05-03T18:21:05.034Z,38.71
2023-05-03T18:23:33.717Z,38.79
2023-05-03T18:26:01.821Z,38.78
2023-05-03T18:28:29.914Z,38.76
2023-05-03T18:30:57.560Z,38.81
2023-05-03T18:33:25.779Z,38.85
2023-05-03T18:35:53.711Z,38.87
2023-05-03T18:38:22.085Z,38.92
2023-05-03T18:40:50.603Z,38.99
2023-05-03T18:43:18.727Z,39.03
2023-05-03T18:45:47.076Z,39.10
2023-05-03T18:48:16.916Z,39.17
2023-05-03T18:50:45.734Z,39.24
2023-05-03T18:53:17.423Z,39.30
2023-05-03T18:55:52.663Z,39.34
2023-05-03T18:58:21.367Z,39.40
2023-05-03T19:00:51.364Z,39.44
2023-05-03T19:03:21.663Z,39.46
2023-05-03T19:05:50.653Z,39.50
2023-05-03T19:08:19.220Z,39.55
2023-05-03T19:10:47.503Z,39.56
2023-05-03T19:13:17.022Z,39.58
2023-05-03T19:15:45.449Z,39.58
2023-05-03T19:21:21.876Z,39.62
2023-05-03T19:23:50.830Z,39.67
2023-05-03T19:26:18.852Z,39.64
2023-05-03T19:29:07.987Z,39.68
2023-05-03T19:31:35.882Z,39.69
2023-05-03T19:34:04.551Z,39.72
2023-05-03T19:36:32.493Z,39.73
2023-05-03T19:39:01.819Z,39.75
2023-05-03T19:41:30.421Z,39.73
2023-05-03T19:43:58.522Z,39.65
2023-05-03T19:46:28.961Z,39.69
2023-05-03T19:48:57.445Z,39.69
2023-05-03T19:51:26.434Z,39.70
2023-05-03T19:53:54.289Z,39.75
2023-05-03T19:56:22.074Z,39.77
2023-05-03T19:58:51.387Z,39.72
2023-05-03T20:01:19.927Z,39.74
2023-05-03T20:03:48.148Z,39.72
2023-05-03T20:06:16.225Z,39.76
2023-05-03T20:08:44.124Z,39.77
2023-05-03T20:11:11.828Z,39.76
2023-05-03T20:13:39.516Z,39.76
2023-05-03T20:16:08.749Z,39.79
2023-05-03T20:18:37.222Z,39.79
2023-05-03T20:21:05.180Z,39.75
2023-05-03T20:23:32.631Z,39.80
2023-05-03T20:26:01.909Z,39.79
2023-05-03T20:28:32.227Z,39.81
2023-05-03T20:31:00.008Z,39.80
2023-05-03T20:33:27.832Z,39.83
2023-05-03T20:35:55.297Z,39.87
2023-05-03T20:38:23.081Z,39.92
2023-05-03T20:40:51.053Z,39.94
2023-05-03T20:43:18.650Z,39.97
2023-05-03T20:45:46.556Z,39.98
2023-05-03T20:48:14.186Z,40.01
2023-05-03T20:50:41.628Z,40.06
2023-05-03T20:53:09.361Z,40.07
2023-05-03T20:55:36.951Z,40.11
2023-05-03T20:58:04.366Z,40.18
2023-05-03T21:00:32.091Z,40.21
2023-05-03T21:02:59.744Z,40.19
2023-05-03T21:05:27.322Z,40.18
2023-05-03T21:07:55.052Z,40.15
2023-05-03T21:10:22.459Z,40.10
2023-05-03T21:12:49.894Z,40.06
2023-05-03T21:15:17.646Z,40.02
2023-05-03T21:17:45.195Z,39.98
2023-05-03T21:20:12.980Z,39.97
2023-05-03T21:22:40.772Z,39.94
2023-05-03T21:25:08.782Z,39.94
2023-05-03T21:27:36.243Z,39.95
2023-05-03T21:30:04.474Z,39.94
2023-05-03T21:32:33.281Z,39.95
2023-05-03T21:35:00.738Z,39.93
2023-05-03T21:37:28.442Z,39.87
2023-05-03T21:40:01.991Z,39.88
2023-05-03T21:42:30.700Z,39.93
2023-05-03T21:44:58.109Z,40.05
2023-05-03T21:47:27.618Z,40.07
2023-05-03T21:49:55.573Z,40.01
2023-05-03T21:52:23.228Z,39.98
2023-05-03T21:54:52.109Z,39.96
2023-05-03T21:57:19.840Z,39.97
2023-05-03T21:59:47.425Z,39.92
2023-05-03T22:02:14.878Z,39.87
2023-05-03T22:04:43.507Z,39.88
2023-05-03T22:07:10.881Z,39.97
2023-05-03T22:09:39.360Z,40.00
2023-05-03T22:12:22.596Z,40.02
2023-05-03T22:14:52.123Z,39.95
2023-05-03T22:17:19.798Z,39.87
2023-05-03T22:19:47.206Z,39.82
2023-05-03T22:22:14.626Z,39.85
2023-05-03T22:24:42.439Z,39.80
2023-05-03T22:27:09.880Z,39.82
2023-05-03T22:29:37.481Z,39.78
2023-05-03T22:32:06.659Z,39.78
2023-05-03T22:34:34.392Z,39.78
2023-05-03T22:37:02.022Z,39.72
2023-05-03T22:39:29.761Z,39.85
2023-05-03T22:41:57.170Z,39.94
2023-05-03T22:44:24.559Z,39.95
2023-05-03T22:46:52.230Z,39.98
2023-05-03T22:49:20.115Z,39.86
2023-05-03T22:51:47.521Z,39.88
2023-05-03T22:54:15.536Z,40.26
2023-05-03T22:56:43.103Z,40.32
2023-05-03T22:59:11.844Z,40.13
2023-05-03T23:01:40.090Z,39.98
2023-05-03T23:04:07.675Z,39.93
2023-05-03T23:06:35.095Z,39.92
2023-05-03T23:09:02.810Z,39.95
2023-05-03T23:11:30.200Z,39.99
2023-05-03T23:13:57.639Z,40.01
2023-05-03T23:16:25.378Z,39.98
2023-05-03T23:18:55.515Z,40.02
2023-05-03T23:21:23.524Z,40.02
2023-05-03T23:23:51.178Z,40.06
2023-05-03T23:26:18.623Z,40.04
2023-05-03T23:28:46.362Z,40.02
2023-05-03T23:31:14.544Z,40.05
2023-05-03T23:33:42.556Z,40.01
2023-05-03T23:36:10.007Z,40.05
2023-05-03T23:38:37.703Z,40.00
2023-05-03T23:41:05.242Z,40.01
2023-05-03T23:43:32.658Z,40.00
2023-05-03T23:46:00.397Z,40.01
2023-05-03T23:48:27.774Z,40.00
2023-05-03T23:50:55.197Z,40.00
2023-05-03T23:53:22.923Z,40.04
2023-05-03T23:55:50.518Z,40.17
2023-05-03T23:58:17.888Z,40.04
